createdAt,value
2023-03-25T00:02:13.302Z,18.60
2023-03-25T00:05:39.231Z,18.60
2023-03-25T00:09:03.780Z,18.60
2023-03-25T00:12:26.384Z,18.60
2023-03-25T00:15:50.357Z,18.60
2023-03-25T00:19:13.681Z,18.60
2023-03-25T00:22:41.121Z,18.60
2023-03-25T00:26:04.480Z,18.60
2023-03-25T00:29:26.767Z,18.60
2023-03-25T00:32:52.755Z,18.50
2023-03-25T00:36:18.145Z,18.50
2023-03-25T00:39:40.430Z,18.50
2023-03-25T00:43:04.635Z,18.50
2023-03-25T00:46:29.913Z,18.60
2023-03-25T00:49:52.846Z,18.50
2023-03-25T00:53:15.318Z,18.60
2023-03-25T00:56:37.724Z,18.50
2023-03-25T01:00:00.386Z,18.60
2023-03-25T01:03:24.814Z,18.60
2023-03-25T01:06:52.103Z,18.60
2023-03-25T01:10:14.772Z,18.50
2023-03-25T01:13:37.112Z,18.50
2023-03-25T01:17:00.342Z,18.50
2023-03-25T01:20:26.696Z,18.50
2023-03-25T01:23:49.377Z,18.50
2023-03-25T01:27:11.611Z,18.60
2023-03-25T01:30:33.894Z,18.50
2023-03-25T01:33:59.711Z,18.60
2023-03-25T01:37:22.773Z,18.50
2023-03-25T01:40:46.567Z,18.60
2023-03-25T01:44:14.790Z,18.50
2023-03-25T01:47:37.916Z,18.60
2023-03-25T01:51:06.709Z,18.50
2023-03-25T01:54:29.289Z,18.50
2023-03-25T01:57:54.456Z,18.50
2023-03-25T02:01:21.724Z,18.50
2023-03-25T02:04:59.809Z,18.50
2023-03-25T02:08:24.024Z,18.50
2023-03-25T02:11:46.393Z,18.50
2023-03-25T02:15:11.162Z,18.50
2023-03-25T02:19:04.603Z,18.50
2023-03-25T02:22:27.244Z,18.50
2023-03-25T02:26:05.382Z,18.50
2023-03-25T02:29:53.979Z,18.50
2023-03-25T02:33:28.385Z,18.50
2023-03-25T02:37:18.195Z,18.50
2023-03-25T02:41:01.583Z,18.50
2023-03-25T02:44:40.421Z,18.50
2023-03-25T02:48:08.109Z,18.50
2023-03-25T02:51:36.397Z,18.50
2023-03-25T02:55:05.109Z,18.50
2023-03-25T02:58:30.381Z,18.50
2023-03-25T03:01:58.617Z,18.50
2023-03-25T03:05:32.689Z,18.50
2023-03-25T03:09:23.013Z,18.50
2023-03-25T03:13:10.460Z,18.50
2023-03-25T03:16:49.964Z,18.50
2023-03-25T03:20:50.066Z,18.50
2023-03-25T03:24:31.057Z,18.50
2023-03-25T03:28:11.937Z,18.50
2023-03-25T03:32:06.540Z,18.50
2023-03-25T03:35:51.876Z,18.50
2023-03-25T03:39:19.895Z,18.50
2023-03-25T03:43:21.272Z,18.50
2023-03-25T03:47:04.537Z,18.50
2023-03-25T03:50:36.551Z,18.40
2023-03-25T03:54:04.007Z,18.40
2023-03-25T03:57:35.801Z,18.40
2023-03-25T04:01:03.213Z,18.40
2023-03-25T04:04:27.221Z,18.40
2023-03-25T04:07:58.801Z,18.40
2023-03-25T04:11:25.622Z,18.40
2023-03-25T04:14:48.082Z,18.40
2023-03-25T04:18:10.409Z,18.40
2023-03-25T04:21:33.216Z,18.40
2023-03-25T04:24:56.287Z,18.40
2023-03-25T04:28:19.100Z,18.40
2023-03-25T04:31:49.712Z,18.40
2023-03-25T04:35:17.063Z,18.40
2023-03-25T04:38:40.606Z,18.40
2023-03-25T04:42:03.691Z,18.40
2023-03-25T04:45:28.838Z,18.40
2023-03-25T04:48:53.816Z,18.40
2023-03-25T04:52:16.622Z,18.40
2023-03-25T04:55:38.856Z,18.40
2023-03-25T04:59:01.126Z,18.40
2023-03-25T05:02:24.238Z,18.40
2023-03-25T05:05:47.371Z,18.40
2023-03-25T05:09:12.734Z,18.40
2023-03-25T05:12:34.962Z,18.40
2023-03-25T05:15:57.394Z,18.40
2023-03-25T05:19:20.635Z,18.40
2023-03-25T05:22:43.246Z,18.50
2023-03-25T05:26:06.228Z,18.60
2023-03-25T05:29:34.016Z,18.60
2023-03-25T05:32:57.123Z,18.60
2023-03-25T05:36:19.462Z,18.70
2023-03-25T05:39:42.737Z,18.80
2023-03-25T05:43:08.029Z,18.80
2023-03-25T05:46:30.377Z,18.80
2023-03-25T05:49:54.032Z,18.90
2023-03-25T05:53:16.463Z,18.90
2023-03-25T05:56:39.342Z,19.00
2023-03-25T06:00:04.903Z,19.00
2023-03-25T06:03:34.391Z,19.00
2023-03-25T06:06:56.756Z,19.10
2023-03-25T06:10:19.169Z,19.10
2023-03-25T06:13:49.519Z,19.00
2023-03-25T06:17:24.139Z,19.10
2023-03-25T06:20:47.023Z,19.10
2023-03-25T06:24:09.361Z,19.10
2023-03-25T06:27:34.713Z,19.20
2023-03-25T06:30:57.276Z,19.10
2023-03-25T06:34:20.103Z,19.20
2023-03-25T06:37:43.397Z,19.20
2023-03-25T06:41:13.872Z,19.30
2023-03-25T06:44:37.205Z,19.30
2023-03-25T06:48:31.730Z,19.30
2023-03-25T06:51:53.946Z,19.30
2023-03-25T06:55:16.450Z,19.40
2023-03-25T06:58:39.053Z,19.40
2023-03-25T07:02:01.471Z,19.40
2023-03-25T07:05:24.033Z,19.50
2023-03-25T07:08:46.982Z,19.60
2023-03-25T07:12:09.509Z,19.70
2023-03-25T07:15:31.879Z,19.70
2023-03-25T07:18:58.968Z,19.60
2023-03-25T07:22:21.266Z,19.70
2023-03-25T07:25:43.826Z,19.70
2023-03-25T07:29:06.444Z,19.70
2023-03-25T07:32:28.884Z,19.70
2023-03-25T07:35:51.460Z,19.70
2023-03-25T07:39:14.058Z,19.70
2023-03-25T07:42:37.660Z,19.70
2023-03-25T07:46:32.073Z,19.70
2023-03-25T07:49:54.386Z,19.60
2023-03-25T07:53:16.723Z,19.60
2023-03-25T07:56:39.020Z,19.60
2023-03-25T08:00:01.780Z,19.60
2023-03-25T08:03:35.257Z,19.60
2023-03-25T08:06:57.646Z,19.60
2023-03-25T08:10:20.337Z,19.70
2023-03-25T08:13:42.711Z,19.60
2023-03-25T08:17:06.306Z,19.60
2023-03-25T08:20:28.751Z,19.50
2023-03-25T08:23:54.828Z,19.50
2023-03-25T08:27:17.278Z,19.50
2023-03-25T08:30:40.082Z,19.40
2023-03-25T08:34:03.532Z,19.40
2023-03-25T08:37:25.970Z,19.40
2023-03-25T08:40:48.760Z,19.40
2023-03-25T08:44:11.939Z,19.40
2023-03-25T08:47:34.260Z,19.40
2023-03-25T08:50:56.786Z,19.30
2023-03-25T08:54:19.056Z,19.30
2023-03-25T08:57:42.380Z,19.30
2023-03-25T09:01:05.035Z,19.30
2023-03-25T09:04:27.355Z,19.30
2023-03-25T09:07:49.652Z,19.30
2023-03-25T09:11:12.646Z,19.30
2023-03-25T09:14:35.186Z,19.30
2023-03-25T09:17:57.596Z,19.30
2023-03-25T09:21:19.978Z,19.30
2023-03-25T09:24:42.571Z,19.30
2023-03-25T09:28:05.008Z,19.30
2023-03-25T09:31:27.349Z,19.30
2023-03-25T09:34:49.693Z,19.20
2023-03-25T09:38:11.979Z,19.20
2023-03-25T09:42:11.742Z,19.20
2023-03-25T09:45:44.873Z,19.20
2023-03-25T09:49:16.500Z,19.20
2023-03-25T09:53:00.425Z,19.20
2023-03-25T09:56:29.133Z,19.20
2023-03-25T09:59:52.460Z,19.10
2023-03-25T10:03:34.852Z,19.10
2023-03-25T10:07:10.273Z,19.20
2023-03-25T10:10:41.642Z,19.10
2023-03-25T10:14:12.988Z,19.10
2023-03-25T10:17:56.522Z,19.10
2023-03-25T10:21:36.426Z,19.10
2023-03-25T10:25:02.468Z,19.10
2023-03-25T10:28:33.581Z,19.10
2023-03-25T10:32:01.384Z,19.20
2023-03-25T10:35:47.519Z,19.10
2023-03-25T10:39:21.966Z,19.10
2023-03-25T10:43:08.488Z,19.10
2023-03-25T10:46:54.836Z,19.10
2023-03-25T10:50:19.208Z,19.10
2023-03-25T10:53:42.900Z,19.10
2023-03-25T10:57:29.127Z,19.10
2023-03-25T11:00:51.457Z,19.10
2023-03-25T11:04:18.476Z,19.10
2023-03-25T11:07:44.720Z,19.10
2023-03-25T11:11:08.329Z,19.10
2023-03-25T11:14:31.119Z,19.10
2023-03-25T11:18:22.213Z,19.10
2023-03-25T11:21:48.504Z,19.10
2023-03-25T11:25:24.355Z,19.10
2023-03-25T11:28:54.163Z,19.10
2023-03-25T11:32:16.850Z,19.10
2023-03-25T11:35:44.464Z,19.10
2023-03-25T11:39:33.968Z,19.10
2023-03-25T11:43:01.645Z,19.10
2023-03-25T11:46:24.596Z,19.10
2023-03-25T11:49:49.715Z,19.10
2023-03-25T11:53:16.251Z,19.00
2023-03-25T11:56:44.972Z,19.10
2023-03-25T12:00:34.035Z,19.10
2023-03-25T12:04:18.903Z,19.10
2023-03-25T12:07:51.348Z,19.10
2023-03-25T12:11:28.849Z,19.10
2023-03-25T12:15:04.550Z,19.10
2023-03-25T12:18:55.490Z,19.10
2023-03-25T12:22:33.992Z,18.80
2023-03-25T12:26:09.237Z,18.60
2023-03-25T12:29:56.529Z,18.60
2023-03-25T12:33:39.909Z,18.50
2023-03-25T12:37:20.255Z,18.60
2023-03-25T12:41:21.503Z,18.80
2023-03-25T12:44:43.847Z,18.90
2023-03-25T12:48:25.726Z,19.00
2023-03-25T12:51:47.975Z,19.10
2023-03-25T12:55:24.131Z,19.00
2023-03-25T12:59:02.378Z,18.80
2023-03-25T13:03:12.627Z,18.90
2023-03-25T13:06:51.956Z,19.00
2023-03-25T13:10:19.882Z,19.10
2023-03-25T13:13:46.328Z,19.10
2023-03-25T13:17:18.558Z,19.20
2023-03-25T13:20:46.606Z,19.30
2023-03-25T13:24:17.786Z,19.30
2023-03-25T13:27:42.596Z,19.30
2023-03-25T13:31:30.253Z,19.40
2023-03-25T13:34:58.065Z,19.40
2023-03-25T13:38:30.801Z,19.40
2023-03-25T13:42:02.932Z,19.40
2023-03-25T13:45:28.752Z,19.40
2023-03-25T13:48:58.162Z,19.40
2023-03-25T13:52:21.011Z,19.30
2023-03-25T13:56:01.395Z,19.30
2023-03-25T13:59:27.468Z,19.30
2023-03-25T14:03:11.784Z,19.30
2023-03-25T14:06:52.712Z,19.30
2023-03-25T14:10:44.014Z,19.30
2023-03-25T14:14:11.493Z,19.30
2023-03-25T14:17:36.284Z,19.30
2023-03-25T14:21:19.926Z,19.30
2023-03-25T14:24:42.912Z,19.30
2023-03-25T14:28:06.549Z,19.10
2023-03-25T14:31:31.819Z,19.00
2023-03-25T14:35:00.660Z,19.10
2023-03-25T14:38:49.897Z,19.20
2023-03-25T14:42:26.026Z,19.10
2023-03-25T14:45:53.580Z,19.10
2023-03-25T14:49:23.172Z,19.20
2023-03-25T14:52:49.157Z,19.20
2023-03-25T14:56:19.434Z,19.30
2023-03-25T15:00:02.976Z,19.30
2023-03-25T15:03:36.663Z,19.30
2023-03-25T15:07:01.959Z,19.30
2023-03-25T15:10:31.651Z,19.30
2023-03-25T15:13:58.827Z,19.30
2023-03-25T15:17:46.498Z,19.30
2023-03-25T15:21:08.739Z,19.30
2023-03-25T15:24:36.605Z,19.30
2023-03-25T15:28:22.664Z,19.30
2023-03-25T15:32:08.182Z,19.30
2023-03-25T15:35:48.437Z,19.20
2023-03-25T15:39:22.042Z,19.30
2023-03-25T15:43:10.644Z,19.30
2023-03-25T15:46:57.189Z,19.30
2023-03-25T15:50:57.296Z,19.30
2023-03-25T15:54:43.736Z,19.20
2023-03-25T15:58:12.990Z,19.30
2023-03-25T16:01:39.425Z,19.30
2023-03-25T16:05:03.845Z,19.30
2023-03-25T16:08:34.245Z,19.20
2023-03-25T16:12:03.075Z,19.30
2023-03-25T16:15:28.754Z,19.30
2023-03-25T16:18:51.534Z,19.30
2023-03-25T16:22:26.427Z,19.30
2023-03-25T16:25:49.942Z,19.30
2023-03-25T16:29:19.751Z,19.30
2023-03-25T16:32:42.089Z,19.30
2023-03-25T16:36:16.785Z,19.30
2023-03-25T16:39:39.197Z,19.20
2023-03-25T16:43:18.079Z,19.20
2023-03-25T16:46:40.908Z,19.20
2023-03-25T16:50:04.739Z,19.20
2023-03-25T16:53:28.286Z,19.20
2023-03-25T16:56:51.901Z,19.20
2023-03-25T17:00:21.768Z,19.20
2023-03-25T17:03:46.820Z,19.20
2023-03-25T17:07:14.116Z,19.10
2023-03-25T17:10:48.277Z,19.10
2023-03-25T17:14:19.979Z,19.20
2023-03-25T17:17:51.083Z,19.20
2023-03-25T17:21:22.974Z,19.20
2023-03-25T17:24:57.450Z,19.20
2023-03-25T17:28:28.773Z,19.20
2023-03-25T17:31:56.745Z,19.20
2023-03-25T17:35:27.532Z,19.30
2023-03-25T17:38:56.092Z,19.30
2023-03-25T17:42:25.664Z,19.30
2023-03-25T17:45:48.019Z,19.50
2023-03-25T17:49:19.037Z,19.40
2023-03-25T17:52:41.484Z,19.40
2023-03-25T17:56:05.880Z,19.50
2023-03-25T17:59:28.195Z,19.60
2023-03-25T18:02:50.814Z,19.60
2023-03-25T18:06:13.234Z,19.60
2023-03-25T18:09:39.126Z,19.60
2023-03-25T18:13:01.842Z,19.60
2023-03-25T18:16:24.156Z,19.60
2023-03-25T18:19:46.467Z,19.60
2023-03-25T18:23:08.733Z,19.60
2023-03-25T18:26:30.988Z,19.70
2023-03-25T18:29:53.262Z,19.70
2023-03-25T18:33:16.504Z,19.70
2023-03-25T18:36:39.615Z,19.70
2023-03-25T18:40:02.061Z,19.70
2023-03-25T18:43:24.448Z,19.70
2023-03-25T18:46:46.816Z,19.70
2023-03-25T18:50:33.475Z,19.70
2023-03-25T18:53:56.062Z,19.80
2023-03-25T18:57:18.270Z,19.70
2023-03-25T19:00:40.868Z,19.70
2023-03-25T19:04:03.330Z,19.70
2023-03-25T19:07:25.785Z,19.80
2023-03-25T19:10:48.298Z,19.80
2023-03-25T19:14:10.633Z,19.70
2023-03-25T19:17:32.922Z,19.80
2023-03-25T19:20:55.846Z,19.70
2023-03-25T19:24:18.098Z,19.70
2023-03-25T19:27:41.958Z,19.70
2023-03-25T19:31:04.548Z,19.80
2023-03-25T19:34:26.853Z,19.80
2023-03-25T19:37:52.268Z,19.70
2023-03-25T19:41:16.599Z,19.70
2023-03-25T19:44:39.033Z,19.70
2023-03-25T19:48:01.618Z,19.70
2023-03-25T19:51:24.106Z,19.70
2023-03-25T19:54:46.955Z,19.70
2023-03-25T19:58:09.789Z,19.70
2023-03-25T20:01:32.576Z,19.70
2023-03-25T20:04:54.808Z,19.60
2023-03-25T20:08:17.270Z,19.70
2023-03-25T20:11:39.820Z,19.60
2023-03-25T20:15:03.903Z,19.60
2023-03-25T20:18:26.200Z,19.60
2023-03-25T20:21:48.531Z,19.60
2023-03-25T20:25:12.418Z,19.60
2023-03-25T20:28:36.099Z,19.60
2023-03-25T20:31:58.359Z,19.60
2023-03-25T20:35:21.243Z,19.60
2023-03-25T20:38:56.119Z,19.50
2023-03-25T20:42:19.712Z,19.60
2023-03-25T20:45:43.126Z,19.50
2023-03-25T20:49:08.969Z,19.50
2023-03-25T20:52:31.753Z,19.50
2023-03-25T20:55:54.295Z,19.50
2023-03-25T20:59:17.978Z,19.50
2023-03-25T21:02:41.798Z,19.50
2023-03-25T21:06:13.464Z,19.50
2023-03-25T21:09:43.222Z,19.50
2023-03-25T21:13:06.823Z,19.50
2023-03-25T21:16:29.277Z,19.50
2023-03-25T21:19:52.009Z,19.30
2023-03-25T21:23:14.251Z,19.30
2023-03-25T21:26:36.575Z,19.30
2023-03-25T21:29:58.848Z,19.20
2023-03-25T21:33:21.145Z,19.20
2023-03-25T21:36:43.695Z,19.30
2023-03-25T21:40:08.270Z,19.40
2023-03-25T21:43:31.810Z,19.40
2023-03-25T21:46:54.285Z,19.40
2023-03-25T21:50:16.797Z,19.40
2023-03-25T21:53:45.004Z,19.40
2023-03-25T21:57:07.865Z,19.40
2023-03-25T22:00:30.189Z,19.40
2023-03-25T22:03:55.365Z,19.40
2023-03-25T22:07:17.741Z,19.40
2023-03-25T22:10:40.027Z,19.40
2023-03-25T22:14:02.475Z,19.40
2023-03-25T22:17:25.432Z,19.40
2023-03-25T22:20:47.787Z,19.40
2023-03-25T22:24:10.073Z,19.40
2023-03-25T22:27:32.308Z,19.40
2023-03-25T22:30:54.635Z,19.40
2023-03-25T22:34:16.978Z,19.30
2023-03-25T22:37:39.423Z,19.30
2023-03-25T22:41:06.368Z,19.30
2023-03-25T22:44:28.828Z,19.30
2023-03-25T22:47:51.282Z,19.30
2023-03-25T22:51:17.409Z,19.30
2023-03-25T22:54:39.749Z,19.30
2023-03-25T22:58:02.018Z,19.30
2023-03-25T23:01:26.505Z,19.30
2023-03-25T23:04:48.842Z,19.30
2023-03-25T23:08:11.258Z,19.30
2023-03-25T23:11:34.139Z,19.20
2023-03-25T23:14:56.889Z,19.20
2023-03-25T23:18:19.226Z,19.20
2023-03-25T23:21:41.505Z,19.20
2023-03-25T23:25:05.095Z,19.20
2023-03-25T23:28:27.778Z,19.20
2023-03-25T23:31:50.154Z,19.10
2023-03-25T23:35:12.506Z,19.10
2023-03-25T23:38:34.775Z,19.10
2023-03-25T23:41:57.234Z,19.10
2023-03-25T23:45:19.966Z,19.10
2023-03-25T23:48:42.262Z,19.10
2023-03-25T23:52:11.480Z,19.10
2023-03-25T23:55:35.135Z,19.10
2023-03-25T23:58:59.589Z,19.10
